Aérodrome :
LOGIN :

S'inscrire | Disclaimer

   EN    FR    IT 

 










Légende :    VFR   VFR Marginal   IFR   IFR Intensif   IFR Très Intensif
Visi : 
Plafond : 
>= 8 km
>= 3000ft
5 à 8 km
1000 à 3000 ft
1500m à 5 km
500 à 1000 ft
800 à 1500m
200 à 500 ft
< 800m
< 200 ft
Symboles :   Orages  Brouillard  Fortes neiges  Fortes précipitations  Vent > 20 kt
SIGMETs :   Divers  Orages  Givrage  Turbulence  Onde Orograph.  Cendres Volcan.







- Altitude de l'aérodrome : 1197 ft
- Code IATA : SPM


ETAD - Spangdahlem Ab

DERNIER METAR :
  • 191409Z AUTO 25011KT 9999 FEW050 27/14 A3009 RMK AO2 WSHFT 01 SLP165 $

METARs EXPIRÉS :
  • 191356Z AUTO 22013G17KT 9999 SCT049 27/14 A3009 RMK AO2 SLP165 T02690136 $
  • 191256Z AUTO 22011G18KT 9999 FEW049 26/14 A3010 RMK AO2 SLP169 T02600144 $
  • 191156Z AUTO 20013G19KT 9999 M 26/15 A3011 RMK AO2 SLP172 T02580146 10259 20151 57009 $

TAF AMD TAF ETAD
Valide du 19 à 12h jusqu'au 20 à 17h UTC


191210Z 1912/2017 21010G15KT 9999 SCT040 QNH3003INS
BECMG 1917/1918 VRB06KT 9999 SCT150 QNH3006INS
BECMG 2006/2007 22009KT 9999 SCT020 QNH3012INS
BECMG 2010/2011 22009KT 9999 SKC QNH2997INS TX27/1915Z TN11/2003Z
Pas de NOTAMs connus pour ce terrain.



MET'MAP, la Météo Aéronautique d'un coup d'oeil ! - Copyright ORBIFLY Décembre 2007 - Disclaimer

ORBIFLY MET'MAP TEAM :

Programmation & Développement : Alexandra Zaïnal
Conception & Développement : Baudouin d'Aumeries
Co-Programmation & Développement : Marc-Olivier Méhu
Soutien technique & logistique : Manuel Goepfert

Contact : metmap@orbifly.com




SOURCES & CREDITS :

   NOAA